createdAt,value
2023-03-25T00:02:22.082Z,97011.34
2023-03-25T00:04:54.526Z,97014.94
2023-03-25T00:07:21.296Z,97018.53
2023-03-25T00:09:48.032Z,97012.41
2023-03-25T00:12:14.668Z,97025.59
2023-03-25T00:14:42.144Z,97028.09
2023-03-25T00:17:08.468Z,97016.44
2023-03-25T00:19:35.528Z,97013.78
2023-03-25T00:22:01.891Z,97012.03
2023-03-25T00:24:28.237Z,97013.41
2023-03-25T00:26:54.558Z,97005.72
2023-03-25T00:29:20.924Z,97002.84
2023-03-25T00:31:47.507Z,97008.97
2023-03-25T00:34:14.808Z,97009.88
2023-03-25T00:36:41.456Z,97015.53
2023-03-25T00:39:08.410Z,97009.41
2023-03-25T00:41:36.999Z,97017.56
2023-03-25T00:44:03.434Z,97006.56
2023-03-25T00:46:30.555Z,97018.34
2023-03-25T00:48:56.927Z,97033.88
2023-03-25T00:51:23.526Z,97028.34
2023-03-25T00:53:53.463Z,97032.59
2023-03-25T00:56:20.206Z,97032.13
2023-03-25T00:58:46.513Z,97018.56
2023-03-25T01:01:13.976Z,97027.66
2023-03-25T01:03:40.754Z,97026.38
2023-03-25T01:06:11.419Z,97019.28
2023-03-25T01:08:38.484Z,97031.06
2023-03-25T01:11:05.067Z,97030.84
2023-03-25T01:13:31.403Z,97017.81
2023-03-25T01:15:57.754Z,97020.50
2023-03-25T01:18:24.098Z,97024.06
2023-03-25T01:20:50.480Z,97032.06
2023-03-25T01:23:16.839Z,97028.13
2023-03-25T01:25:43.204Z,97030.31
2023-03-25T01:28:09.523Z,97019.13
2023-03-25T01:30:35.892Z,97024.00
2023-03-25T01:33:02.313Z,97025.09
2023-03-25T01:35:28.868Z,97029.91
2023-03-25T01:37:55.209Z,97026.78
2023-03-25T01:40:23.349Z,97011.88
2023-03-25T01:42:49.699Z,97018.28
2023-03-25T01:45:36.614Z,97011.66
2023-03-25T01:48:06.193Z,97021.56
2023-03-25T01:50:33.308Z,97013.84
2023-03-25T01:53:00.011Z,97017.91
2023-03-25T01:55:27.433Z,97006.44
2023-03-25T01:57:54.388Z,97011.00
2023-03-25T02:00:21.409Z,97023.06
2023-03-25T02:02:47.777Z,97026.03
2023-03-25T02:05:21.085Z,97013.28
2023-03-25T02:07:47.981Z,97018.13
2023-03-25T02:10:14.300Z,97004.28
2023-03-25T02:12:41.383Z,97014.50
2023-03-25T02:15:08.004Z,97009.47
2023-03-25T02:17:49.894Z,97007.06
2023-03-25T02:20:24.526Z,97006.88
2023-03-25T02:22:50.799Z,97003.41
2023-03-25T02:25:19.146Z,97001.38
2023-03-25T02:27:57.025Z,97007.81
2023-03-25T02:30:37.597Z,97004.31
2023-03-25T02:33:19.325Z,96999.28
2023-03-25T02:35:49.887Z,96994.56
2023-03-25T02:38:36.696Z,96999.41
2023-03-25T02:41:14.278Z,96985.84
2023-03-25T02:43:45.502Z,96990.91
2023-03-25T02:46:13.071Z,96995.41
2023-03-25T02:48:58.165Z,96987.72
2023-03-25T02:51:26.046Z,96980.03
2023-03-25T02:53:52.418Z,96980.31
2023-03-25T02:56:22.821Z,96977.16
2023-03-25T02:58:49.792Z,96976.06
2023-03-25T03:01:16.164Z,96983.59
2023-03-25T03:03:42.529Z,96981.22
2023-03-25T03:06:09.470Z,96976.19
2023-03-25T03:08:51.122Z,96967.72
2023-03-25T03:11:36.270Z,96968.00
2023-03-25T03:14:08.436Z,96963.28
2023-03-25T03:16:58.268Z,96962.50
2023-03-25T03:19:38.991Z,96976.09
2023-03-25T03:22:14.315Z,96977.97
2023-03-25T03:24:42.067Z,96984.69
2023-03-25T03:27:14.790Z,96971.38
2023-03-25T03:29:45.241Z,96996.44
2023-03-25T03:32:32.678Z,96982.63
2023-03-25T03:35:00.377Z,96985.59
2023-03-25T03:37:37.401Z,96986.38
2023-03-25T03:40:07.012Z,96976.00
2023-03-25T03:42:37.836Z,96978.97
2023-03-25T03:45:08.326Z,96978.66
2023-03-25T03:47:39.654Z,96980.06
2023-03-25T03:50:09.177Z,96984.59
2023-03-25T03:52:40.227Z,96973.16
2023-03-25T03:55:13.902Z,96980.38
2023-03-25T03:57:41.814Z,96984.09
2023-03-25T04:00:10.162Z,96978.28
2023-03-25T04:02:49.532Z,96977.50
2023-03-25T04:05:16.768Z,97002.56
2023-03-25T04:07:43.009Z,96992.19
2023-03-25T04:10:14.825Z,96981.53
2023-03-25T04:12:42.045Z,96989.06
2023-03-25T04:15:08.454Z,96990.72
2023-03-25T04:17:34.891Z,96993.38
2023-03-25T04:20:01.634Z,96987.56
2023-03-25T04:22:28.007Z,96984.41
2023-03-25T04:24:56.108Z,96983.63
2023-03-25T04:27:25.118Z,96990.34
2023-03-25T04:29:54.183Z,96990.63
2023-03-25T04:32:20.569Z,96991.72
2023-03-25T04:34:47.193Z,96990.91
2023-03-25T04:37:13.881Z,96989.34
2023-03-25T04:39:40.469Z,96986.19
2023-03-25T04:42:06.782Z,96988.34
2023-03-25T04:44:39.233Z,96985.69
2023-03-25T04:47:05.871Z,96987.84
2023-03-25T04:49:32.226Z,96995.06
2023-03-25T04:51:59.175Z,96991.59
2023-03-25T04:54:25.892Z,96987.06
2023-03-25T04:56:52.377Z,96988.94
2023-03-25T04:59:18.867Z,96982.03
2023-03-25T05:01:45.884Z,96989.25
2023-03-25T05:04:13.943Z,96991.91
2023-03-25T05:06:41.729Z,96993.00
2023-03-25T05:09:08.855Z,96992.19
2023-03-25T05:11:36.912Z,96986.06
2023-03-25T05:14:03.476Z,96988.56
2023-03-25T05:16:29.830Z,96987.72
2023-03-25T05:18:56.242Z,96980.66
2023-03-25T05:21:22.569Z,96989.19
2023-03-25T05:23:48.881Z,96983.06
2023-03-25T05:26:15.210Z,96971.91
2023-03-25T05:28:42.265Z,96984.44
2023-03-25T05:31:09.347Z,96982.88
2023-03-25T05:33:37.151Z,96986.09
2023-03-25T05:36:04.132Z,96993.03
2023-03-25T05:38:30.493Z,96989.84
2023-03-25T05:40:56.828Z,96989.84
2023-03-25T05:43:23.978Z,96992.81
2023-03-25T05:45:50.483Z,96997.94
2023-03-25T05:48:16.958Z,96998.72
2023-03-25T05:50:43.292Z,96993.69
2023-03-25T05:53:12.941Z,96994.97
2023-03-25T05:55:39.358Z,96987.28
2023-03-25T05:58:06.846Z,96989.16
2023-03-25T06:00:34.970Z,96981.19
2023-03-25T06:03:02.541Z,96988.38
2023-03-25T06:05:29.603Z,96989.66
2023-03-25T06:07:57.289Z,96998.16
2023-03-25T06:10:23.622Z,97000.81
2023-03-25T06:12:52.947Z,96996.38
2023-03-25T06:15:21.179Z,97008.28
2023-03-25T06:17:47.576Z,96993.41
2023-03-25T06:20:16.346Z,97001.09
2023-03-25T06:22:44.355Z,97004.34
2023-03-25T06:25:11.631Z,97007.00
2023-03-25T06:27:40.426Z,96994.78
2023-03-25T06:30:10.279Z,96998.81
2023-03-25T06:32:37.438Z,96996.94
2023-03-25T06:35:04.308Z,97007.59
2023-03-25T06:37:30.884Z,97012.91
2023-03-25T06:39:59.757Z,97011.81
2023-03-25T06:42:26.833Z,97006.50
2023-03-25T06:44:53.508Z,97011.13
2023-03-25T06:47:20.044Z,97028.88
2023-03-25T06:49:46.429Z,97024.66
2023-03-25T06:52:12.884Z,97004.44
2023-03-25T06:54:39.222Z,97015.88
2023-03-25T06:57:06.031Z,97026.22
2023-03-25T06:59:32.354Z,97020.13
2023-03-25T07:01:58.883Z,97012.44
2023-03-25T07:04:25.230Z,97013.53
2023-03-25T07:06:51.945Z,97018.25
2023-03-25T07:09:18.287Z,97013.13
2023-03-25T07:11:44.606Z,97005.94
2023-03-25T07:14:10.950Z,97020.03
2023-03-25T07:16:37.284Z,97019.25
2023-03-25T07:19:03.620Z,97032.06
2023-03-25T07:21:29.936Z,97030.47
2023-03-25T07:23:56.289Z,97031.06
2023-03-25T07:26:22.625Z,97034.81
2023-03-25T07:28:48.945Z,97019.13
2023-03-25T07:31:15.653Z,97034.00
2023-03-25T07:33:41.999Z,97028.97
2023-03-25T07:36:08.711Z,97029.50
2023-03-25T07:38:35.246Z,97034.00
2023-03-25T07:41:04.807Z,97013.69
2023-03-25T07:43:32.844Z,97037.31
2023-03-25T07:45:59.522Z,97023.25
2023-03-25T07:48:26.770Z,97025.75
2023-03-25T07:50:53.180Z,97017.88
2023-03-25T07:53:20.441Z,97021.31
2023-03-25T07:55:46.874Z,97016.97
2023-03-25T07:58:13.191Z,97019.81
2023-03-25T08:00:39.516Z,97024.06
2023-03-25T08:03:06.586Z,97021.22
2023-03-25T08:05:33.083Z,97009.78
2023-03-25T08:08:02.047Z,97025.06
2023-03-25T08:10:28.495Z,97033.94
2023-03-25T08:12:54.830Z,97027.63
2023-03-25T08:15:24.493Z,97025.06
2023-03-25T08:17:52.286Z,97033.16
2023-03-25T08:20:18.729Z,97027.34
2023-03-25T08:22:45.285Z,97039.38
2023-03-25T08:25:11.676Z,97042.84
2023-03-25T08:27:37.991Z,97043.53
2023-03-25T08:30:05.168Z,97037.72
2023-03-25T08:32:31.555Z,97039.28
2023-03-25T08:34:57.928Z,97040.88
2023-03-25T08:37:25.813Z,97036.72
2023-03-25T08:39:55.126Z,97047.69
2023-03-25T08:42:21.454Z,97042.56
2023-03-25T08:44:47.791Z,97041.56
2023-03-25T08:47:15.351Z,97039.06
2023-03-25T08:49:41.902Z,97038.50
2023-03-25T08:52:08.777Z,97054.91
2023-03-25T08:54:35.304Z,97041.75
2023-03-25T08:57:01.742Z,97036.13
2023-03-25T08:59:28.312Z,97047.59
2023-03-25T09:01:56.050Z,97043.63
2023-03-25T09:04:23.056Z,97044.41
2023-03-25T09:07:12.001Z,97051.34
2023-03-25T09:09:38.664Z,97034.72
2023-03-25T09:12:05.332Z,97042.63
2023-03-25T09:14:31.642Z,97030.50
2023-03-25T09:16:57.976Z,97034.94
2023-03-25T09:19:24.589Z,97029.53
2023-03-25T09:21:51.204Z,97028.31
2023-03-25T09:24:17.528Z,97028.22
2023-03-25T09:26:43.893Z,97031.69
2023-03-25T09:29:10.560Z,97032.16
2023-03-25T09:31:37.035Z,97042.84
2023-03-25T09:34:03.397Z,97045.81
2023-03-25T09:36:29.805Z,97037.81
2023-03-25T09:38:56.364Z,97029.03
2023-03-25T09:41:25.305Z,97043.16
2023-03-25T09:43:56.513Z,97040.75
2023-03-25T09:46:23.070Z,97044.22
2023-03-25T09:48:49.407Z,97040.75
2023-03-25T09:51:18.749Z,97039.69
2023-03-25T09:53:51.037Z,97042.66
2023-03-25T09:56:21.668Z,97057.06
2023-03-25T09:58:48.494Z,97044.72
2023-03-25T10:01:14.819Z,97036.22
2023-03-25T10:03:51.753Z,97034.16
2023-03-25T10:06:20.247Z,97045.91
2023-03-25T10:08:52.443Z,97042.06
2023-03-25T10:11:25.926Z,97039.19
2023-03-25T10:13:58.319Z,97027.63
2023-03-25T10:16:27.437Z,97031.75
2023-03-25T10:18:59.884Z,97041.16
2023-03-25T10:21:43.590Z,97037.28
2023-03-25T10:24:18.972Z,97043.19
2023-03-25T10:26:48.650Z,97037.66
2023-03-25T10:29:16.271Z,97028.91
2023-03-25T10:31:50.350Z,97039.09
2023-03-25T10:34:20.496Z,97041.56
2023-03-25T10:36:49.229Z,97037.66
2023-03-25T10:39:19.153Z,97030.53
2023-03-25T10:41:52.057Z,97032.81
2023-03-25T10:44:19.338Z,97037.19
2023-03-25T10:46:49.650Z,97046.84
2023-03-25T10:49:18.203Z,97031.94
2023-03-25T10:51:44.532Z,97018.13
2023-03-25T10:54:11.674Z,97025.84
2023-03-25T10:56:45.323Z,97016.56
2023-03-25T10:59:18.767Z,97030.69
2023-03-25T11:01:45.579Z,97031.75
2023-03-25T11:04:12.976Z,97039.47
2023-03-25T11:06:40.023Z,97036.81
2023-03-25T11:09:25.419Z,97040.06
2023-03-25T11:11:52.501Z,97047.59
2023-03-25T11:14:26.227Z,97034.53
2023-03-25T11:16:57.070Z,97043.94
2023-03-25T11:19:27.618Z,97040.75
2023-03-25T11:22:04.691Z,97035.75
2023-03-25T11:24:34.392Z,97050.16
2023-03-25T11:27:00.814Z,97038.72
2023-03-25T11:29:27.310Z,97032.59
2023-03-25T11:31:57.717Z,97031.59
2023-03-25T11:34:24.929Z,97022.50
2023-03-25T11:36:53.061Z,97037.13
2023-03-25T11:39:25.236Z,97017.97
2023-03-25T11:41:51.746Z,97020.94
2023-03-25T11:44:31.075Z,97021.53
2023-03-25T11:46:58.534Z,97008.69
2023-03-25T11:49:26.049Z,97022.03
2023-03-25T11:51:59.705Z,97020.16
2023-03-25T11:54:26.112Z,97028.94
2023-03-25T11:56:52.468Z,97029.22
2023-03-25T11:59:23.231Z,97031.41
2023-03-25T12:01:49.814Z,97031.41
2023-03-25T12:04:20.858Z,97041.25
2023-03-25T12:06:57.806Z,97027.66
2023-03-25T12:09:24.872Z,97034.53
2023-03-25T12:11:54.408Z,97025.06
2023-03-25T12:14:39.144Z,97013.00
2023-03-25T12:17:06.340Z,97042.72
2023-03-25T12:19:41.138Z,97049.94
2023-03-25T12:22:08.042Z,97033.16
2023-03-25T12:24:47.983Z,97029.19
2023-03-25T12:27:37.567Z,97026.53
2023-03-25T12:30:13.326Z,97032.16
2023-03-25T12:33:06.185Z,97049.25
2023-03-25T12:35:41.384Z,97029.19
2023-03-25T12:38:26.682Z,97013.13
2023-03-25T12:40:59.245Z,97009.38
2023-03-25T12:43:44.023Z,97015.69
2023-03-25T12:46:14.794Z,97009.63
2023-03-25T12:48:47.771Z,97037.69
2023-03-25T12:51:23.166Z,97021.03
2023-03-25T12:54:02.775Z,97010.16
2023-03-25T12:56:29.060Z,97003.75
2023-03-25T12:58:59.925Z,97015.19
2023-03-25T13:01:49.595Z,97009.84
2023-03-25T13:04:25.786Z,97018.94
2023-03-25T13:06:52.132Z,97010.16
2023-03-25T13:09:25.675Z,97015.00
2023-03-25T13:11:53.409Z,97024.84
2023-03-25T13:14:46.286Z,97027.84
2023-03-25T13:17:18.530Z,97019.03
2023-03-25T13:19:44.883Z,97015.91
2023-03-25T13:22:19.075Z,97020.41
2023-03-25T13:24:52.881Z,97014.31
2023-03-25T13:27:19.349Z,97018.38
2023-03-25T13:29:49.527Z,97015.97
2023-03-25T13:32:17.504Z,97021.31
2023-03-25T13:34:44.697Z,97033.84
2023-03-25T13:37:12.414Z,97010.94
2023-03-25T13:39:38.712Z,97022.69
2023-03-25T13:42:06.770Z,97012.03
2023-03-25T13:44:39.589Z,97019.56
2023-03-25T13:47:05.861Z,97022.50
2023-03-25T13:49:37.798Z,97011.06
2023-03-25T13:52:04.126Z,97014.03
2023-03-25T13:54:33.027Z,97007.91
2023-03-25T13:57:19.130Z,97002.84
2023-03-25T14:00:01.677Z,97005.81
2023-03-25T14:02:27.980Z,97011.47
2023-03-25T14:05:00.710Z,97020.50
2023-03-25T14:07:29.825Z,97019.25
2023-03-25T14:10:14.174Z,97015.28
2023-03-25T14:12:47.446Z,97027.25
2023-03-25T14:15:15.510Z,97021.91
2023-03-25T14:17:42.122Z,97020.34
2023-03-25T14:20:10.590Z,97007.81
2023-03-25T14:22:40.380Z,96998.72
2023-03-25T14:25:26.993Z,97014.69
2023-03-25T14:27:53.333Z,97016.00
2023-03-25T14:30:20.251Z,97030.09
2023-03-25T14:32:46.706Z,97008.78
2023-03-25T14:35:31.198Z,97014.59
2023-03-25T14:38:09.455Z,97011.47
2023-03-25T14:40:47.384Z,97018.34
2023-03-25T14:43:31.829Z,97008.00
2023-03-25T14:46:01.360Z,97008.28
2023-03-25T14:48:37.394Z,97007.50
2023-03-25T14:51:30.012Z,97004.34
2023-03-25T14:53:59.664Z,97004.34
2023-03-25T14:56:31.575Z,97004.03
2023-03-25T14:58:58.173Z,97002.47
2023-03-25T15:01:30.032Z,97005.13
2023-03-25T15:04:14.370Z,96993.69
2023-03-25T15:06:41.089Z,96979.84
2023-03-25T15:09:11.801Z,96980.94
2023-03-25T15:11:42.617Z,96976.72
2023-03-25T15:14:14.058Z,96974.34
2023-03-25T15:16:47.438Z,96957.06
2023-03-25T15:19:17.344Z,96963.50
2023-03-25T15:21:59.143Z,96913.56
2023-03-25T15:24:25.443Z,96933.31
2023-03-25T15:26:51.768Z,96967.63
2023-03-25T15:29:21.144Z,96969.50
2023-03-25T15:31:50.629Z,96974.06
2023-03-25T15:34:37.401Z,96978.28
2023-03-25T15:37:09.948Z,96978.28
2023-03-25T15:39:39.248Z,96979.59
2023-03-25T15:42:31.780Z,96971.97
2023-03-25T15:45:07.320Z,96971.38
2023-03-25T15:47:43.226Z,96979.38
2023-03-25T15:50:22.084Z,96978.09
2023-03-25T15:52:54.037Z,97002.28
2023-03-25T15:55:21.173Z,97005.63
2023-03-25T15:57:48.227Z,97009.47
2023-03-25T16:00:15.886Z,97002.66
2023-03-25T16:02:48.290Z,97001.38
2023-03-25T16:05:14.612Z,96989.16
2023-03-25T16:07:41.263Z,97000.00
2023-03-25T16:10:16.227Z,97003.66
2023-03-25T16:12:43.304Z,96999.59
2023-03-25T16:15:13.172Z,97009.47
2023-03-25T16:17:39.532Z,97016.97
2023-03-25T16:20:07.684Z,97026.56
2023-03-25T16:22:34.570Z,97026.03
2023-03-25T16:25:01.609Z,97025.34
2023-03-25T16:27:34.795Z,97016.88
2023-03-25T16:30:01.341Z,97021.09
2023-03-25T16:32:34.107Z,97011.03
2023-03-25T16:35:00.860Z,97032.34
2023-03-25T16:37:27.341Z,97022.00
2023-03-25T16:39:56.774Z,97020.41
2023-03-25T16:42:32.768Z,97019.91
2023-03-25T16:44:59.095Z,97015.38
2023-03-25T16:47:25.631Z,97018.31
2023-03-25T16:49:52.492Z,97006.09
2023-03-25T16:52:19.688Z,97010.66
2023-03-25T16:54:47.313Z,97001.78
2023-03-25T16:57:33.874Z,97006.31
2023-03-25T17:00:05.944Z,96996.44
2023-03-25T17:02:41.229Z,96998.50
2023-03-25T17:05:16.153Z,96992.09
2023-03-25T17:07:42.744Z,96987.06
2023-03-25T17:10:19.612Z,96993.97
2023-03-25T17:12:46.653Z,97001.16
2023-03-25T17:15:14.455Z,96999.91
2023-03-25T17:17:42.230Z,97014.00
2023-03-25T17:20:12.724Z,97028.88
2023-03-25T17:22:39.522Z,97056.84
2023-03-25T17:25:18.391Z,97070.31
2023-03-25T17:27:44.774Z,97077.16
2023-03-25T17:30:15.499Z,97087.53
2023-03-25T17:32:43.716Z,97098.97
2023-03-25T17:35:15.939Z,97087.53
2023-03-25T17:37:42.243Z,97084.06
2023-03-25T17:40:11.738Z,97084.06
2023-03-25T17:42:38.199Z,97077.66
2023-03-25T17:45:04.643Z,97076.09
2023-03-25T17:47:31.186Z,97072.31
2023-03-25T17:49:58.856Z,97086.94
2023-03-25T17:52:29.549Z,97083.97
2023-03-25T17:54:57.755Z,97087.63
2023-03-25T17:57:24.059Z,97088.72
2023-03-25T17:59:51.579Z,97081.72
2023-03-25T18:02:17.925Z,97081.72
2023-03-25T18:04:44.259Z,97085.66
2023-03-25T18:07:11.151Z,97073.22
2023-03-25T18:09:37.561Z,97086.84
2023-03-25T18:12:03.874Z,97091.31
2023-03-25T18:14:30.425Z,97101.78
2023-03-25T18:16:56.778Z,97114.44
2023-03-25T18:19:24.153Z,97130.69
2023-03-25T18:21:50.631Z,97125.47
2023-03-25T18:24:16.991Z,97126.44
2023-03-25T18:26:45.239Z,97146.66
2023-03-25T18:29:21.860Z,97142.63
2023-03-25T18:31:48.244Z,97135.50
2023-03-25T18:34:14.950Z,97141.41
2023-03-25T18:36:41.504Z,97148.06
2023-03-25T18:39:11.617Z,97128.41
2023-03-25T18:41:37.938Z,97132.28
2023-03-25T18:44:04.262Z,97130.41
2023-03-25T18:46:30.777Z,97135.44
2023-03-25T18:49:02.218Z,97142.41
2023-03-25T18:51:29.322Z,97143.50
2023-03-25T18:53:55.745Z,97136.59
2023-03-25T18:56:23.573Z,97139.75
2023-03-25T18:58:49.968Z,97132.38
2023-03-25T19:01:16.666Z,97145.97
2023-03-25T19:03:43.152Z,97138.28
2023-03-25T19:06:10.342Z,97147.34
2023-03-25T19:08:37.008Z,97145.25
2023-03-25T19:11:16.261Z,97160.69
2023-03-25T19:13:46.876Z,97156.72
2023-03-25T19:16:13.182Z,97161.25
2023-03-25T19:18:39.516Z,97176.38
2023-03-25T19:21:06.056Z,97168.66
2023-03-25T19:23:32.536Z,97171.03
2023-03-25T19:26:01.022Z,97173.13
2023-03-25T19:28:27.449Z,97181.66
2023-03-25T19:30:54.714Z,97172.22
2023-03-25T19:33:21.397Z,97174.44
2023-03-25T19:35:51.810Z,97180.97
2023-03-25T19:38:22.760Z,97185.47
2023-03-25T19:40:49.655Z,97192.59
2023-03-25T19:43:16.075Z,97196.16
2023-03-25T19:45:42.399Z,97186.22
2023-03-25T19:48:08.768Z,97198.56
2023-03-25T19:50:35.429Z,97196.63
2023-03-25T19:53:02.129Z,97206.78
2023-03-25T19:55:28.453Z,97209.72
2023-03-25T19:57:54.784Z,97203.66
2023-03-25T20:00:21.905Z,97210.97
2023-03-25T20:02:49.149Z,97204.88
2023-03-25T20:05:15.809Z,97210.09
2023-03-25T20:07:42.575Z,97209.19
2023-03-25T20:12:43.485Z,97207.91
2023-03-25T20:15:10.695Z,97211.22
2023-03-25T20:17:37.256Z,97202.59
2023-03-25T20:20:06.989Z,97206.06
2023-03-25T20:22:33.571Z,97205.16
2023-03-25T20:24:59.899Z,97204.84
2023-03-25T20:27:26.447Z,97206.72
2023-03-25T20:29:53.022Z,97213.97
2023-03-25T20:32:21.691Z,97216.50
2023-03-25T20:34:48.612Z,97210.06
2023-03-25T20:37:15.319Z,97214.31
2023-03-25T20:39:41.657Z,97208.19
2023-03-25T20:42:07.978Z,97205.97
2023-03-25T20:44:34.383Z,97207.88
2023-03-25T20:47:00.810Z,97217.16
2023-03-25T20:49:27.178Z,97212.13
2023-03-25T20:51:55.846Z,97214.13
2023-03-25T20:54:22.220Z,97214.63
2023-03-25T20:56:48.835Z,97216.22
2023-03-25T20:59:16.661Z,97214.31
2023-03-25T21:01:43.045Z,97213.34
2023-03-25T21:04:11.415Z,97210.38
2023-03-25T21:06:38.219Z,97214.00
2023-03-25T21:09:07.542Z,97216.97
2023-03-25T21:11:34.094Z,97221.94
2023-03-25T21:14:00.402Z,97225.72
2023-03-25T21:16:27.467Z,97223.19
2023-03-25T21:18:56.470Z,97232.47
2023-03-25T21:21:24.323Z,97228.34
2023-03-25T21:23:50.755Z,97226.28
2023-03-25T21:26:17.547Z,97230.00
2023-03-25T21:28:43.918Z,97230.78
2023-03-25T21:31:13.914Z,97234.22
2023-03-25T21:33:40.254Z,97243.97
2023-03-25T21:36:07.615Z,97241.88
2023-03-25T21:38:36.737Z,97251.28
2023-03-25T21:41:04.210Z,97248.63
2023-03-25T21:43:31.072Z,97238.22
2023-03-25T21:45:57.512Z,97246.25
2023-03-25T21:48:32.373Z,97246.56
2023-03-25T21:50:58.815Z,97247.16
2023-03-25T21:53:25.593Z,97252.03
2023-03-25T21:55:55.153Z,97253.41
2023-03-25T21:58:22.104Z,97251.13
2023-03-25T22:00:48.870Z,97248.38
2023-03-25T22:03:18.712Z,97257.63
2023-03-25T22:05:45.289Z,97254.34
2023-03-25T22:08:11.616Z,97251.59
2023-03-25T22:10:37.957Z,97250.31
2023-03-25T22:13:04.267Z,97245.84
2023-03-25T22:15:31.083Z,97238.44
2023-03-25T22:17:57.467Z,97242.53
2023-03-25T22:20:23.844Z,97248.66
2023-03-25T22:22:51.381Z,97254.59
2023-03-25T22:25:18.232Z,97246.44
2023-03-25T22:27:44.544Z,97253.22
2023-03-25T22:30:11.220Z,97247.34
2023-03-25T22:32:37.602Z,97266.06
2023-03-25T22:35:04.068Z,97259.75
2023-03-25T22:37:30.635Z,97261.47
2023-03-25T22:39:56.946Z,97265.81
2023-03-25T22:42:25.642Z,97268.78
2023-03-25T22:44:51.982Z,97265.31
2023-03-25T22:47:18.294Z,97264.84
2023-03-25T22:49:44.601Z,97271.28
2023-03-25T22:52:12.424Z,97262.75
2023-03-25T22:54:38.906Z,97273.94
2023-03-25T22:57:05.891Z,97267.22
2023-03-25T22:59:32.223Z,97280.56
2023-03-25T23:01:58.583Z,97281.09
2023-03-25T23:04:24.939Z,97276.63
2023-03-25T23:07:00.634Z,97276.44
2023-03-25T23:09:42.750Z,97278.59
2023-03-25T23:12:13.079Z,97285.16
2023-03-25T23:14:40.003Z,97275.66
2023-03-25T23:17:06.331Z,97282.69
2023-03-25T23:19:32.657Z,97287.34
2023-03-25T23:21:59.646Z,97281.69
2023-03-25T23:24:27.586Z,97285.75
2023-03-25T23:26:54.048Z,97295.63
2023-03-25T23:29:20.469Z,97282.84
2023-03-25T23:31:46.834Z,97288.31
2023-03-25T23:34:14.009Z,97286.72
2023-03-25T23:36:40.359Z,97295.31
2023-03-25T23:39:07.886Z,97290.19
2023-03-25T23:41:34.262Z,97294.91
2023-03-25T23:44:00.627Z,97293.22
2023-03-25T23:46:27.437Z,97291.25
2023-03-25T23:49:01.898Z,97291.03
2023-03-25T23:51:28.971Z,97292.91
2023-03-25T23:53:55.346Z,97302.59
2023-03-25T23:56:22.574Z,97297.53
2023-03-25T23:58:49.038Z,97302.06
